Flight Track Log - Related Links

Times and Time Zones

All times are in EDT time to prevent confusion due to time zone crossing. See the UAL270 flight status page for this flight to view local times or setup timezone preferences in your user account.

Time Position Orientation Groundspeed Altitude Reporting Facility
EDT Latitude Longitude Course Direction KTS MPH feet Rate Location/Type
Wed 01:51:01 PM 39.9500 -104.7000 323° Northwest 198 228 7,100  Level Denver TRACON
Wed 01:51:55 PM 40.0000 -104.7167 346° North 249 287 9,300 2,451 Climbing Denver TRACON
Wed 01:52:12 PM 40.0203 -104.7236 345° North 248 285 10,000 2,203 Climbing Denver Center
Wed 01:53:00 PM 40.1365 -104.4532 323° Northwest  Level FlightAware Approximate
Wed 01:53:14 PM 40.1003 -104.7558 343° North 295 339 12,200  Level Denver Center
Wed 01:54:00 PM 40.2321 -104.5417 327° Northwest  Level FlightAware Approximate
Wed 01:54:16 PM 40.1994 -104.8033 340° North 347 399 14,900  Level Denver Center
Wed 01:55:00 PM 40.3219 -104.6219 323° Northwest  Level FlightAware Approximate
Wed 01:55:18 PM 40.2969 -104.8486 340° North 368 423 17,300  Level Denver Center
Wed 01:56:00 PM 40.4151 -104.7151 323° Northwest  Level FlightAware Approximate
Wed 01:56:20 PM 40.4036 -104.8994 340° North 364 419 21,100  Level Denver Center
Wed 01:57:22 PM 40.4981 -104.9422 341° North 356 410 24,200 2,758 Climbing Denver Center
Wed 01:58:24 PM 40.5864 -104.9844 340° North 341 392 26,800 2,016 Climbing Denver Center
Wed 01:59:27 PM 40.6806 -105.0311 339° North 337 388 28,400 1,296 Climbing Denver Center
Wed 02:00:29 PM 40.7692 -105.0775 338° Northwest 348 400 29,500 1,415 Climbing Denver Center
Wed 02:01:30 PM 40.8683 -105.1592 328° Northwest 372 428 31,300 1,317 Climbing Denver Center
Wed 02:02:32 PM 40.9478 -105.2444 321° Northwest 386 444 32,200 726 Climbing Denver Center
Wed 02:03:34 PM 40.9897 -105.3767 293° West 406 467 32,800 629 Climbing Denver Center
Wed 02:04:36 PM 41.0392 -105.5397 292° West 426 490 33,500 581 Climbing Denver Center
Wed 02:05:38 PM 41.0825 -105.6858 292° West 440 506 34,000 532 Climbing Denver Center
Wed 02:06:40 PM 41.1328 -105.8575 291° West 445 512 34,600 968 Climbing Denver Center
Wed 02:07:42 PM 41.1783 -106.0092 292° West 458 527 36,000 677 Climbing Denver Center
Wed 02:08:44 PM 41.2286 -106.1872 291° West 454 522 36,000  Level Denver Center
Wed 02:09:46 PM 41.2717 -106.3367 291° West 454 522 36,000  Level Denver Center
Wed 02:10:48 PM 41.3203 -106.5078 291° West 451 519 36,000 -48 Level Denver Center
Wed 02:11:50 PM 41.3622 -106.6583 290° West 448 516 35,900  Descending Denver Center
Wed 02:12:52 PM 41.4044 -106.8075 291° West 452 520 36,000 48 Climbing Denver Center
Wed 02:13:54 PM 41.4536 -106.9822 291° West 451 519 36,000  Level Denver Center
Wed 02:14:56 PM 41.4950 -107.1339 290° West 455 524 36,000  Level Denver Center
Wed 02:15:57 PM 41.5439 -107.3119 290° West 457 526 36,000  Level Denver Center
Wed 02:16:59 PM 41.5850 -107.4628 290° West 455 524 36,000 387 Level Denver Center
Wed 02:18:01 PM 41.6342 -107.6422 290° West 460 529 36,800 677 Climbing Denver Center
Wed 02:19:03 PM 41.6761 -107.7961 290° West 461 531 37,400 581 Climbing Denver Center
Wed 02:20:05 PM 41.7253 -107.9786 290° West 467 537 38,000 290 Climbing Denver Center
Wed 02:21:07 PM 41.7656 -108.1319 289° West 461 531 38,000  Level Denver Center
Wed 02:21:50 PM 41.7986 -108.2619 289° West 465 535 38,000  Level Salt Lake Center
Wed 02:22:51 PM 41.8392 -108.4178 289° West 464 534 38,000  Level Salt Lake Center
Wed 02:23:53 PM 41.8867 -108.5997 289° West 465 535 38,000  Level Salt Lake Center
Wed 02:24:55 PM 41.9283 -108.7567 290° West 469 540 38,000  Level Salt Lake Center
Wed 02:25:57 PM 41.9750 -108.9397 289° West 468 539 38,000  Level Salt Lake Center
Wed 02:26:59 PM 42.0153 -109.0967 289° West 467 537 38,000  Level Salt Lake Center
Wed 02:28:01 PM 42.0611 -109.2806 289° West 468 539 38,000  Level Salt Lake Center
Wed 02:29:02 PM 42.1003 -109.4372 289° West 466 536 38,000 -49 Level Salt Lake Center
Wed 02:30:04 PM 42.1394 -109.5931 289° West 463 533 37,900  Descending Salt Lake Center
Wed 02:31:06 PM 42.1844 -109.7775 288° West 465 535 38,000 48 Climbing Salt Lake Center
Wed 02:32:08 PM 42.2228 -109.9347 288° West 463 533 38,000  Level Salt Lake Center
Wed 02:33:10 PM 42.2686 -110.1189 289° West 464 534 38,000  Level Salt Lake Center
Wed 02:34:11 PM 42.3078 -110.2769 289° West 465 535 38,000 49 Level Salt Lake Center
Wed 02:35:13 PM 42.3531 -110.4633 288° West 468 539 38,100  Climbing Salt Lake Center
Wed 02:36:15 PM 42.3914 -110.6231 288° West 468 539 38,000 -48 Descending Salt Lake Center
Wed 02:37:17 PM 42.4347 -110.8092 288° West 466 536 38,000  Level Salt Lake Center
Wed 02:38:19 PM 42.4756 -110.9825 288° West 463 533 38,000  Level Salt Lake Center
Wed 02:39:20 PM 42.5139 -111.1397 288° West 459 528 38,000  Level Salt Lake Center
Wed 02:40:22 PM 42.5689 -111.2861 297° West 453 521 38,000  Level Salt Lake Center
Wed 02:41:24 PM 42.6367 -111.4342 302° West 452 520 38,000 -48 Level Salt Lake Center
Wed 02:42:26 PM 42.7108 -111.6103 300° West 454 522 37,900 -242 Descending Salt Lake Center
Wed 02:43:28 PM 42.7586 -111.7703 292° West 462 532 37,500 -439 Descending Salt Lake Center
Wed 02:44:29 PM 42.7919 -111.9331 286° West 466 536 37,000 -244 Descending Salt Lake Center
Wed 02:45:31 PM 42.8303 -112.1244 285° West 468 539 37,000  Level Salt Lake Center
Wed 02:46:33 PM 42.8617 -112.2864 285° West 463 533 37,000  Level Salt Lake Center
Wed 02:47:35 PM 42.8942 -112.4472 285° West 461 531 37,000 -98 Level Salt Lake Center
Wed 02:48:36 PM 42.9311 -112.6375 285° West 463 533 36,800 -537 Descending Salt Lake Center
Wed 02:49:38 PM 42.9628 -112.8025 285° West 468 539 35,900 -968 Descending Salt Lake Center
Wed 02:50:40 PM 42.9997 -112.9956 285° West 468 539 34,800 -919 Descending Salt Lake Center
Wed 02:51:42 PM 43.0314 -113.1575 285° West 462 532 34,000 -387 Descending Salt Lake Center
Wed 02:52:44 PM 43.0661 -113.3458 284° West 458 527 34,000  Level Salt Lake Center
Wed 02:53:45 PM 43.0961 -113.5067 284° West 458 527 34,000  Level Salt Lake Center
Wed 02:54:47 PM 43.1261 -113.6686 284° West 454 522 34,000  Level Salt Lake Center
Wed 02:55:49 PM 43.1600 -113.8561 284° West 454 522 34,000  Level Salt Lake Center
Wed 02:56:51 PM 43.1933 -114.0364 284° West 453 521 34,000  Level Salt Lake Center
Wed 02:57:52 PM 43.2217 -114.2014 283° West 455 524 34,000  Level Salt Lake Center
Wed 02:58:54 PM 43.2503 -114.3603 284° West 448 516 34,000 -1,113 Level Salt Lake Center
Wed 02:59:56 PM 43.2789 -114.5519 282° West 461 531 31,700 -2,390 Descending Salt Lake Center
Wed 03:00:57 PM 43.3031 -114.7133 282° West 452 520 29,100 -2,537 Descending Salt Lake Center
Wed 03:01:59 PM 43.3294 -114.8947 281° West 435 501 26,500 -2,081 Descending Salt Lake Center
Wed 03:03:01 PM 43.3503 -115.0458 281° West 421 484 24,800 -1,951 Descending Salt Lake Center
Wed 03:04:02 PM 43.3703 -115.1889 281° West 402 463 22,500 -2,927 Descending Salt Lake Center
Wed 03:05:04 PM 43.3939 -115.3500 281° West 385 443 18,800 -3,242 Descending Salt Lake Center
Wed 03:06:06 PM 43.4131 -115.4925 281° West 366 421 15,800 -3,048 Descending Salt Lake Center
Wed 03:07:08 PM 43.4386 -115.6261 285° West 348 400 12,500 -2,732 Descending Salt Lake Center
Wed 03:08:09 PM 43.4669 -115.7467 288° West 344 396 10,200 -1,756 Descending Salt Lake Center
Wed 03:09:11 PM 43.4742 -115.8578 275° West 283 326 8,900 -919 Descending Salt Lake Center
Wed 03:10:13 PM 43.4786 -115.9497 274° West 229 264 8,300 -1,220 Descending Salt Lake Center
Wed 03:11:14 PM 43.4942 -116.0178 288° West 181 208 6,400 -1,869 Descending Salt Lake Center

Login

Don't have an account? Register now (free) for customized features, flight alerts, and more!